createdAt,value
2022-10-11T16:25:06.400Z,100480.25
2022-10-11T16:27:34.371Z,100494.81
2022-10-11T16:30:01.775Z,100498.28
2022-10-11T16:32:28.821Z,100502.63
2022-10-11T16:34:55.753Z,100492.13
2022-10-11T16:37:22.706Z,100498.13
2022-10-11T16:39:49.819Z,100498.72
2022-10-11T16:42:16.928Z,100502.84
2022-10-11T16:44:43.911Z,100498.34
2022-10-11T16:47:11.106Z,100500.63
2022-10-11T16:49:38.731Z,100502.03
2022-10-11T16:52:05.887Z,100511.63
2022-10-11T16:54:32.871Z,100509.97
2022-10-11T16:57:00.406Z,100506.75
2022-10-11T16:59:27.849Z,100511.56
2022-10-11T17:01:55.482Z,100514.66
2022-10-11T17:04:22.493Z,100520.50
2022-10-11T17:06:49.543Z,100521.91
2022-10-11T17:09:16.734Z,100527.16
2022-10-11T17:11:44.141Z,100526.88
2022-10-11T17:14:13.123Z,100523.69
2022-10-11T17:16:40.119Z,100527.63
2022-10-11T17:19:12.321Z,100529.72
2022-10-11T17:21:41.153Z,100530.56
2022-10-11T17:24:08.261Z,100533.28
2022-10-11T17:26:35.368Z,100532.63
2022-10-11T17:29:02.624Z,100528.47
2022-10-11T17:31:30.792Z,100528.72
2022-10-11T17:33:59.664Z,100534.63
2022-10-11T17:36:32.166Z,100526.91
2022-10-11T17:39:03.113Z,100526.38
2022-10-11T17:41:32.205Z,100531.16
2022-10-11T17:44:00.211Z,100532.00
2022-10-11T17:46:28.378Z,100529.28
2022-10-11T17:48:56.193Z,100532.56
2022-10-11T17:51:23.219Z,100528.53
2022-10-11T17:53:51.648Z,100535.66
2022-10-11T17:56:29.488Z,100537.19
2022-10-11T17:58:59.495Z,100537.25
2022-10-11T18:01:29.770Z,100528.91
2022-10-11T18:04:02.623Z,100533.56
2022-10-11T18:06:33.403Z,100528.78
2022-10-11T18:09:02.274Z,100536.47
2022-10-11T18:11:30.357Z,100535.34
2022-10-11T18:13:58.093Z,100536.06
2022-10-11T18:16:27.741Z,100534.38
2022-10-11T18:18:57.629Z,100537.88
2022-10-11T18:21:33.636Z,100537.00
2022-10-11T18:24:03.495Z,100538.19
2022-10-11T18:26:31.230Z,100549.63
2022-10-11T18:28:59.110Z,100545.03
2022-10-11T18:31:29.732Z,100544.19
2022-10-11T18:33:57.342Z,100548.13
2022-10-11T18:36:27.097Z,100550.00
2022-10-11T18:38:57.254Z,100550.84
2022-10-11T18:41:31.160Z,100555.00
2022-10-11T18:44:02.650Z,100552.34
2022-10-11T18:46:31.509Z,100546.84
2022-10-11T18:49:01.501Z,100554.72
2022-10-11T18:51:31.376Z,100553.69
2022-10-11T18:54:01.122Z,100551.94
2022-10-11T18:56:30.246Z,100544.78
2022-10-11T18:58:58.984Z,100553.47
2022-10-11T19:01:29.226Z,100554.78
2022-10-11T19:03:59.751Z,100548.53
2022-10-11T19:06:30.535Z,100555.13
2022-10-11T19:09:10.874Z,100556.28
2022-10-11T19:11:39.211Z,100555.81
2022-10-11T19:14:10.054Z,100561.34
2022-10-11T19:16:40.616Z,100561.06
2022-10-11T19:19:07.934Z,100561.06
2022-10-11T19:21:35.744Z,100561.88
2022-10-11T19:24:02.750Z,100553.63
2022-10-11T19:26:35.460Z,100555.41
2022-10-11T19:29:06.520Z,100555.63
2022-10-11T19:31:35.856Z,100557.59
2022-10-11T19:34:03.399Z,100561.41
2022-10-11T19:36:35.479Z,100560.00
2022-10-11T19:39:03.240Z,100563.63
2022-10-11T19:41:30.220Z,100555.25
2022-10-11T19:43:58.537Z,100570.03
2022-10-11T19:46:49.780Z,100561.63
2022-10-11T19:49:18.177Z,100564.28
2022-10-11T19:51:45.572Z,100564.97
2022-10-11T19:54:14.530Z,100562.66
2022-10-11T19:56:42.764Z,100566.72
2022-10-11T19:59:10.980Z,100573.75
2022-10-11T20:01:38.183Z,100573.03
2022-10-11T20:04:07.930Z,100574.97
2022-10-11T20:06:38.611Z,100582.75
2022-10-11T20:11:54.746Z,100572.63
2022-10-11T20:14:21.826Z,100572.25
2022-10-11T20:16:51.257Z,100567.81
2022-10-11T20:19:19.006Z,100579.56
2022-10-11T20:21:46.177Z,100577.19
2022-10-11T20:24:13.439Z,100580.06
2022-10-11T20:26:40.442Z,100580.09
2022-10-11T20:29:07.441Z,100575.94
2022-10-11T20:31:41.005Z,100582.56
2022-10-11T20:34:08.201Z,100572.19
2022-10-11T20:36:36.443Z,100576.94
2022-10-11T20:39:05.067Z,100576.78
2022-10-11T20:41:37.309Z,100581.91
2022-10-11T20:44:05.004Z,100580.69
2022-10-11T20:46:34.212Z,100579.47
2022-10-11T20:49:06.673Z,100584.44
2022-10-11T20:51:35.953Z,100590.56
2022-10-11T20:54:05.027Z,100582.06
2022-10-11T20:56:32.249Z,100581.38
2022-10-11T20:59:00.258Z,100586.66
2022-10-11T21:01:29.656Z,100584.44
2022-10-11T21:04:01.137Z,100591.53
2022-10-11T21:06:30.359Z,100584.91
2022-10-11T21:08:59.332Z,100586.44
2022-10-11T21:11:32.070Z,100581.34
2022-10-11T21:14:01.253Z,100579.84
2022-10-11T21:16:28.466Z,100586.59
2022-10-11T21:18:57.830Z,100586.31
2022-10-11T21:21:26.157Z,100581.91
2022-10-11T21:23:58.031Z,100587.50
2022-10-11T21:26:25.360Z,100588.97
2022-10-11T21:28:52.701Z,100592.41
2022-10-11T21:31:21.565Z,100593.09
2022-10-11T21:33:48.952Z,100594.13
2022-10-11T21:36:21.326Z,100587.34
2022-10-11T21:38:49.911Z,100582.78
2022-10-11T21:41:19.491Z,100581.56
2022-10-11T21:43:47.563Z,100583.41
2022-10-11T21:46:17.608Z,100587.84
2022-10-11T21:48:44.884Z,100589.38
2022-10-11T21:51:15.904Z,100587.16
2022-10-11T21:53:42.957Z,100580.88
2022-10-11T21:56:09.898Z,100584.94
2022-10-11T21:58:36.825Z,100567.34
2022-10-11T22:01:04.190Z,100577.03
2022-10-11T22:03:31.172Z,100588.13
2022-10-11T22:05:58.160Z,100586.59
2022-10-11T22:08:25.043Z,100578.34
2022-10-11T22:10:58.008Z,100583.59
2022-10-11T22:13:26.373Z,100588.47
2022-10-11T22:15:53.444Z,100581.34
2022-10-11T22:18:20.646Z,100581.53
2022-10-11T22:20:47.705Z,100581.53
2022-10-11T22:23:14.888Z,100588.25
2022-10-11T22:25:41.945Z,100586.75
2022-10-11T22:28:09.045Z,100581.00
2022-10-11T22:30:36.078Z,100585.56
2022-10-11T22:33:03.097Z,100582.72
2022-10-11T22:35:32.425Z,100587.97
2022-10-11T22:38:01.849Z,100587.97
2022-10-11T22:40:28.740Z,100581.84
2022-10-11T22:42:55.734Z,100576.25
2022-10-11T22:45:22.639Z,100578.91
2022-10-11T22:47:49.531Z,100584.19
2022-10-11T22:50:16.498Z,100583.19
2022-10-11T22:52:43.382Z,100584.38
2022-10-11T22:55:10.404Z,100574.53
2022-10-11T22:57:37.859Z,100580.63
2022-10-11T23:00:05.828Z,100577.56
2022-10-11T23:02:32.791Z,100580.47
2022-10-11T23:04:59.701Z,100581.66
2022-10-11T23:07:26.629Z,100583.34
2022-10-11T23:09:53.601Z,100588.25
2022-10-11T23:12:23.073Z,100582.34
2022-10-11T23:14:50.080Z,100583.69
2022-10-11T23:17:17.139Z,100585.56
2022-10-11T23:19:44.300Z,100575.91
2022-10-11T23:22:11.181Z,100585.59
2022-10-11T23:24:38.095Z,100586.28
2022-10-11T23:27:05.255Z,100582.75
2022-10-11T23:29:33.024Z,100590.16
2022-10-11T23:31:59.882Z,100587.13
2022-10-11T23:34:26.965Z,100582.22
2022-10-11T23:36:53.852Z,100591.19
2022-10-11T23:39:20.766Z,100586.97
2022-10-11T23:41:47.759Z,100593.88
2022-10-11T23:44:14.799Z,100589.16
2022-10-11T23:46:42.009Z,100592.19
2022-10-11T23:49:08.956Z,100588.81
2022-10-11T23:51:35.995Z,100588.81
2022-10-11T23:54:03.059Z,100596.63
2022-10-11T23:56:29.970Z,100591.34
2022-10-11T23:58:56.965Z,100589.34
